»·PEaware :: N992W KSNA-KSMX

N992W :: KSNA-KSMX

FLIGHT INFORMATION

Flight Status: Arrived
Operator: Privately registered:
United States
More flights under this callsign
Pilot: Joaquin J. (6581)
Aircraft: PIPER PA-31/31P NAVAJO CHIEFTAIN
(PA31)
More flights by this aircraft type
Origin: KSNA John Wayne-Orange Co
United States
Destination: KSMX Santa Maria Pub/Capt Hancock
United States
More flights between these airports :: More routes between these airports
Route: ANAHM1 VTU V25 RZS V12 GVO KOAKS
File this flight plan on PilotEdge
Remarks: RMK / SIMBRIEF
Altitude:
(Current/Filed)
8,000ft
Speed:
(Current/Filed)
180kts
Departed: 06-Jan-23 05:58 PM
Arrived: 06-Jan-23 06:54 PM
Distance/Time
Traveled:
148nm/0:56
Distance/Time
To Go:
Arrived

Flight Plot

Page will automatically refresh every two minutes.

Flight plan parsing failed; only flown route is shown


Map Options




Map Legend


Flown Route
Filed Route
Departure Airport
Arrival Airport
Navaid (VOR, NDB)
Fix

Horizontal Profiles

Position Reports

Time Latitude Longitude Heading Altitude Ground
Speed
06-Jan-23 17:30 33.672480 -117.867195 210 60ft 0kts
06-Jan-23 17:31 33.672480 -117.867195 210 60ft 0kts
06-Jan-23 17:32 33.672480 -117.867195 210 60ft 0kts
06-Jan-23 17:33 33.672480 -117.867195 210 60ft 0kts
06-Jan-23 17:34 33.672480 -117.867195 210 60ft 0kts
06-Jan-23 17:35 33.672480 -117.867195 210 60ft 0kts
06-Jan-23 17:36 33.672480 -117.867195 210 60ft 0kts
06-Jan-23 17:37 33.672480 -117.867195 210 60ft 0kts
06-Jan-23 17:38 33.672480 -117.867195 210 60ft 0kts
06-Jan-23 17:39 33.672480 -117.867195 210 60ft 0kts
06-Jan-23 17:40 33.672480 -117.867195 210 60ft 0kts
06-Jan-23 17:41 33.672480 -117.867195 210 60ft 0kts
06-Jan-23 17:42 33.672480 -117.867195 210 60ft 0kts
06-Jan-23 17:43 33.672480 -117.867195 210 60ft 0kts
06-Jan-23 17:44 33.672480 -117.867195 210 60ft 0kts
06-Jan-23 17:45 33.672382 -117.867371 267 60ft 0kts
06-Jan-23 17:46 33.672392 -117.867450 291 60ft 0kts
06-Jan-23 17:47 33.672513 -117.867725 317 60ft 7kts
06-Jan-23 17:48 33.673164 -117.868005 203 60ft 0kts
06-Jan-23 17:49 33.673164 -117.868005 203 60ft 0kts
06-Jan-23 17:50 33.673164 -117.868005 203 60ft 0kts
06-Jan-23 17:51 33.673164 -117.868005 203 60ft 0kts
06-Jan-23 17:52 33.673164 -117.868005 203 60ft 0kts
06-Jan-23 17:53 33.673135 -117.867887 32 60ft 0kts
06-Jan-23 17:54 33.677712 -117.864796 34 60ft 21kts
06-Jan-23 17:55 33.679939 -117.863708 298 60ft 0kts
06-Jan-23 17:56 33.680481 -117.864818 300 60ft 2kts
06-Jan-23 17:57 33.671167 -117.872090 211 175ft 91kts
06-Jan-23 17:58 33.650393 -117.896940 228 1210ft 119kts
06-Jan-23 17:59 33.628128 -117.927943 226 2265ft 122kts
06-Jan-23 18:00 33.630478 -117.966076 302 3484ft 109kts
06-Jan-23 18:01 33.648344 -118.003006 297 4225ft 151kts
06-Jan-23 18:02 33.669852 -118.047585 301 5188ft 147kts
06-Jan-23 18:03 33.689460 -118.088346 300 6385ft 135kts
06-Jan-23 18:04 33.708090 -118.127231 300 7580ft 134kts
06-Jan-23 18:05 33.728766 -118.171404 296 7987ft 178kts
06-Jan-23 18:06 33.754551 -118.225848 299 7979ft 192kts
06-Jan-23 18:07 33.786599 -118.275301 318 7978ft 180kts
06-Jan-23 18:08 33.823412 -118.315252 316 8040ft 178kts
06-Jan-23 18:09 33.860617 -118.355065 315 8041ft 178kts
06-Jan-23 18:10 33.897188 -118.394030 318 8041ft 173kts
06-Jan-23 18:11 33.933040 -118.434317 299 8047ft 176kts
06-Jan-23 18:12 33.947782 -118.477778 289 8042ft 176kts
06-Jan-23 18:13 33.964979 -118.532430 290 8040ft 173kts
06-Jan-23 18:14 33.982139 -118.586315 290 8028ft 172kts
06-Jan-23 18:15 33.999379 -118.640456 289 8029ft 174kts
06-Jan-23 18:16 34.016683 -118.695065 289 8025ft 174kts
06-Jan-23 18:17 34.033988 -118.749683 290 8022ft 173kts
06-Jan-23 18:18 34.049647 -118.804588 286 8019ft 173kts
06-Jan-23 18:19 34.064306 -118.859984 286 8018ft 173kts
06-Jan-23 18:20 34.079140 -118.915579 286 8014ft 173kts
06-Jan-23 18:21 34.093909 -118.970962 286 8001ft 173kts
06-Jan-23 18:22 34.108676 -119.026386 286 7997ft 173kts
06-Jan-23 18:23 34.130859 -119.077895 301 7997ft 174kts
06-Jan-23 18:24 34.157246 -119.126845 302 7995ft 173kts
06-Jan-23 18:25 34.184015 -119.175501 302 7994ft 174kts
06-Jan-23 18:26 34.210903 -119.224421 301 7995ft 174kts
06-Jan-23 18:27 34.237835 -119.273475 301 7992ft 175kts
06-Jan-23 18:28 34.264744 -119.322555 302 7989ft 175kts
06-Jan-23 18:29 34.291671 -119.371712 302 7986ft 175kts
06-Jan-23 18:30 34.318677 -119.421075 301 7983ft 176kts
06-Jan-23 18:31 34.345696 -119.470595 302 7970ft 176kts
06-Jan-23 18:32 34.372608 -119.519890 301 7962ft 176kts
06-Jan-23 18:33 34.399627 -119.569589 300 7956ft 177kts
06-Jan-23 18:34 34.424820 -119.620733 299 7951ft 176kts
06-Jan-23 18:35 34.450215 -119.671706 299 7950ft 176kts
06-Jan-23 18:36 34.475761 -119.722634 299 7946ft 177kts
06-Jan-23 18:37 34.501369 -119.773812 299 7944ft 178kts
06-Jan-23 18:38 34.527054 -119.825203 299 7940ft 177kts
06-Jan-23 18:39 34.552665 -119.876412 299 7939ft 178kts
06-Jan-23 18:40 34.578442 -119.928162 299 7938ft 178kts
06-Jan-23 18:41 34.604114 -119.979495 299 7933ft 178kts
06-Jan-23 18:42 34.628326 -120.029642 294 7746ft 172kts
06-Jan-23 18:43 34.652402 -120.081535 305 7033ft 184kts
06-Jan-23 18:44 34.683170 -120.131428 300 6019ft 180kts
06-Jan-23 18:45 34.707041 -120.184083 294 5134ft 172kts
06-Jan-23 18:46 34.724385 -120.237255 289 4497ft 162kts
06-Jan-23 18:47 34.747432 -120.281779 315 4211ft 147kts
06-Jan-23 18:48 34.783064 -120.314366 316 3390ft 164kts
06-Jan-23 18:49 34.814255 -120.352317 313 2889ft 150kts
06-Jan-23 18:50 34.840184 -120.381989 313 2222ft 120kts
06-Jan-23 18:51 34.863311 -120.410582 313 1212ft 107kts
06-Jan-23 18:52 34.883337 -120.434527 314 548ft 99kts
06-Jan-23 18:53 34.898615 -120.453179 272 242ft 16kts
06-Jan-23 18:54 34.894140 -120.453609 180 240ft 28kts
06-Jan-23 18:55 34.892056 -120.455717 192 254ft 0kts
06-Jan-23 18:56 34.892056 -120.455717 192 254ft 0kts
06-Jan-23 18:57 34.892056 -120.455717 192 254ft 0kts
06-Jan-23 18:58 34.892056 -120.455717 192 254ft 0kts
06-Jan-23 18:59 34.892056 -120.455717 192 254ft 0kts
06-Jan-23 19:00 34.892056 -120.455717 192 254ft 0kts
06-Jan-23 19:01 34.892056 -120.455717 192 254ft 0kts
06-Jan-23 19:02 34.892056 -120.455717 192 254ft 0kts
06-Jan-23 19:03 34.892056 -120.455717 192 254ft 0kts
06-Jan-23 19:04 34.892056 -120.455717 192 254ft 0kts
06-Jan-23 19:05 34.892056 -120.455717 192 254ft 0kts
06-Jan-23 19:06 34.892056 -120.455717 192 254ft 0kts
06-Jan-23 19:07 34.892056 -120.455717 192 254ft 0kts

Navigation Log

Ident Type
Flight plan parsing failed, navigation log unavailable